Orr, North Dakota
Current Conditions -  °F | °C
As of 2:58 AM on Saturday 25 Oct 2014 (Local Time) from KRDR Reporting Station
Clear Clear  
Wind Chill:   Ceiling: Unl
Heat Index:   Visibility: 10mi
Dew Point:   Wind: 8mph
Humidity: 62%   Direction: 300°WNW
Pressure: 29.97"   Gusts: NA
Location:  48.1078°N, 97.7089°W
Report Text: KRDR 250758Z AUTO 30007KT 10SM CLR 08/01 A2997 RMK AO2 SLP155 T00820013
Loading
Personal Weather Stations






























Interactive Weather Map
Tropical Storm Tracking
New forecast layout! Learn more

10-Day Weather Forecast

Advertisements
Track Severe Weather on mobile